Time;durP1;ratioP1;P1;durP2;ratioP2;P2;SDS_P1;SDS_P2;PMS_P1;PMS_P2;Temp;Humidity;BMP_temperature;BMP_pressure;BME280_temperature;BME280_humidity;BME280_pressure;Samples;Min_cycle;Max_cycle;Signal;HPM_P1;HPM_P2
2022/08/05 00:00:18;;;;;;;9.10;3.63;;;;;;;27.92;67.04;99973.94;5020108;28;20452;-52
2022/08/05 00:02:46;;;;;;;3.30;3.10;;;;;;;27.89;66.73;99976.13;5024983;28;20552;-52
2022/08/05 00:05:20;;;;;;;2.80;2.60;;;;;;;27.61;68.22;99965.34;5026955;28;20496;-52
2022/08/05 00:08:08;;;;;;;33.30;4.97;;;;;;;26.87;75.37;99924.88;5014370;28;20445;-52
2022/08/05 00:10:54;;;;;;;5.27;3.70;;;;;;;26.06;82.15;99862.19;5023103;28;20848;-52
2022/08/05 00:13:21;;;;;;;10.23;3.40;;;;;;;25.80;84.26;99858.47;5020253;28;21365;-52
2022/08/05 00:16:07;;;;;;;3.13;2.37;;;;;;;25.73;82.40;99830.13;5031215;28;20523;-52
2022/08/05 00:18:35;;;;;;;9.40;4.73;;;;;;;25.47;84.26;99828.06;5027207;28;20501;-52
2022/08/05 00:21:04;;;;;;;3.60;3.17;;;;;;;25.54;83.98;99822.88;5026411;28;20491;-51
2022/08/05 00:23:33;;;;;;;2.23;2.00;;;;;;;25.83;81.62;99829.06;5026423;28;20475;-52
2022/08/05 00:26:19;;;;;;;5.43;2.10;;;;;;;26.08;80.60;99827.47;5026599;28;20471;-52
2022/08/05 00:28:45;;;;;;;6.50;2.73;;;;;;;25.98;81.03;99826.66;5023135;28;20447;-52
2022/08/05 00:31:14;;;;;;;4.27;2.70;;;;;;;26.00;81.43;99843.72;5046404;28;20452;-51
2022/08/05 00:33:41;;;;;;;3.33;3.13;;;;;;;25.74;84.23;99859.06;5022766;28;20453;-52
2022/08/05 00:36:27;;;;;;;3.93;3.50;;;;;;;25.51;87.85;99866.75;5019373;28;21007;-52
2022/08/05 00:39:13;;;;;;;6.80;2.90;;;;;;;25.62;88.15;99861.94;5030506;28;20444;-52
2022/08/05 00:41:45;;;;;;;11.50;3.83;;;;;;;25.60;89.09;99880.28;5022133;28;20452;-51
2022/08/05 00:44:18;;;;;;;10.70;5.47;;;;;;;25.47;93.12;99896.09;5019662;28;20471;-52
2022/08/05 00:46:46;;;;;;;38.77;5.07;;;;;;;25.27;95.67;99918.97;5020741;28;20456;-51
2022/08/05 00:49:19;;;;;;;5.70;3.70;;;;;;;25.70;96.93;99888.47;5026271;28;20472;-52
2022/08/05 00:51:45;;;;;;;15.33;4.27;;;;;;;25.53;98.58;99890.09;5024986;28;20454;-51
2022/08/05 00:56:33;;;;;;;4.37;3.97;;;;;;;25.46;96.96;99861.72;5069743;28;20565;-51
2022/08/05 00:59:00;;;;;;;15.63;6.13;;;;;;;25.32;97.54;99863.06;5069652;28;20452;-50
2022/08/05 01:01:32;;;;;;;12.63;4.53;;;;;;;25.04;100.00;99848.56;5069533;28;20821;-51
2022/08/05 01:04:14;;;;;;;8.60;4.00;;;;;;;25.12;100.00;99841.53;5054842;28;20453;-50
2022/08/05 01:06:46;;;;;;;20.07;6.17;;;;;;;24.88;100.00;99828.38;5047386;28;20955;-50
2022/08/05 01:09:17;;;;;;;7.93;6.00;;;;;;;24.98;100.00;99835.53;5039362;28;20447;-51
2022/08/05 01:11:49;;;;;;;4.13;3.90;;;;;;;24.64;100.00;99799.81;5046448;28;20498;-50
2022/08/05 01:14:24;;;;;;;7.20;6.40;;;;;;;24.33;100.00;99796.41;5039707;28;20467;-50
2022/08/05 01:17:24;;;;;;;17.83;4.03;;;;;;;24.60;100.00;99786.66;5042569;28;20474;-50
2022/08/05 01:20:01;;;;;;;5.20;4.67;;;;;;;24.54;100.00;99741.91;5045699;28;20453;-51
2022/08/05 01:22:29;;;;;;;5.30;4.87;;;;;;;24.32;100.00;99734.94;5049356;28;20534;-50
2022/08/05 01:25:15;;;;;;;8.87;3.57;;;;;;;24.39;100.00;99730.63;5044475;28;20498;-51
2022/08/05 01:28:11;;;;;;;8.23;3.60;;;;;;;24.39;100.00;99699.88;5043083;28;20453;-50
2022/08/05 01:30:45;;;;;;;2.30;2.20;;;;;;;23.88;100.00;99706.50;5049144;28;20439;-50
2022/08/05 01:33:25;;;;;;;3.37;3.17;;;;;;;24.59;99.62;99666.22;5029285;28;20992;-50
2022/08/05 01:35:54;;;;;;;2.40;1.93;;;;;;;25.03;99.34;99696.38;5043802;28;20827;-51
2022/08/05 01:38:24;;;;;;;4.80;3.40;;;;;;;24.88;99.95;99692.44;5029423;28;20538;-50
2022/08/05 01:41:00;;;;;;;2.80;2.70;;;;;;;24.97;98.83;99683.38;5045645;28;20956;-51
2022/08/05 01:43:29;;;;;;;4.50;3.20;;;;;;;24.81;97.12;99681.31;5048702;28;20828;-51
2022/08/05 01:45:56;;;;;;;5.20;4.20;;;;;;;24.76;98.83;99692.59;5044030;28;20836;-51
2022/08/05 01:48:26;;;;;;;3.13;2.83;;;;;;;24.75;100.00;99707.22;5040015;28;20509;-50
2022/08/05 01:50:55;;;;;;;4.40;3.87;;;;;;;24.53;100.00;99715.72;5035259;28;20534;-50
2022/08/05 01:53:23;;;;;;;5.40;4.20;;;;;;;24.59;100.00;99730.59;5036565;28;20882;-50
2022/08/05 01:56:12;;;;;;;3.60;3.30;;;;;;;24.83;100.00;99746.41;5037270;28;20498;-51
2022/08/05 01:59:01;;;;;;;3.70;3.37;;;;;;;24.74;100.00;99759.00;5043440;28;20519;-51
2022/08/05 02:01:30;;;;;;;2.90;2.70;;;;;;;24.72;100.00;99790.94;5041238;28;20538;-51
2022/08/05 02:04:07;;;;;;;8.20;4.00;;;;;;;24.57;100.00;99790.53;5028694;28;20459;-51
2022/08/05 02:06:36;;;;;;;3.00;2.73;;;;;;;24.57;100.00;99809.56;5036011;28;20446;-51
2022/08/05 02:09:05;;;;;;;6.27;5.57;;;;;;;24.65;100.00;99844.16;5023141;28;20451;-51
2022/08/05 02:11:41;;;;;;;4.53;4.17;;;;;;;24.72;100.00;99843.44;5021712;28;20506;-52
2022/08/05 02:14:26;;;;;;;6.40;5.03;;;;;;;24.92;100.00;99854.28;5024823;28;20450;-51
2022/08/05 02:16:57;;;;;;;8.30;5.20;;;;;;;24.89;100.00;99852.72;5028392;28;20802;-51
2022/08/05 02:19:27;;;;;;;6.03;5.40;;;;;;;25.01;100.00;99877.91;5027500;28;20443;-51
2022/08/05 02:21:59;;;;;;;9.03;5.70;;;;;;;24.84;100.00;99893.09;5021517;28;20456;-52
2022/08/05 02:24:33;;;;;;;6.60;5.73;;;;;;;24.67;100.00;99875.66;5021570;28;20465;-51
2022/08/05 02:27:03;;;;;;;20.00;6.40;;;;;;;24.80;100.00;99862.59;5027053;28;20460;-51
2022/08/05 02:29:38;;;;;;;23.17;5.87;;;;;;;24.84;100.00;99838.72;5030732;28;20442;-51
2022/08/05 02:32:29;;;;;;;10.20;6.53;;;;;;;24.76;100.00;99828.56;5021653;28;20441;-51
2022/08/05 02:35:04;;;;;;;7.23;5.97;;;;;;;24.67;100.00;99831.28;5014735;28;20492;-51
2022/08/05 02:37:42;;;;;;;5.80;5.33;;;;;;;24.89;100.00;99844.56;5027988;28;20448;-51
2022/08/05 02:40:15;;;;;;;6.90;6.40;;;;;;;24.93;100.00;99854.13;5025711;28;20482;-52
2022/08/05 02:42:44;;;;;;;13.70;6.43;;;;;;;24.77;100.00;99865.59;5021643;28;20886;-51
2022/08/05 02:45:21;;;;;;;6.83;6.27;;;;;;;24.36;100.00;99836.88;5026019;28;20531;-51
2022/08/05 02:47:51;;;;;;;7.17;6.50;;;;;;;24.11;100.00;99816.53;5021397;28;20447;-51
2022/08/05 02:50:38;;;;;;;10.50;7.67;;;;;;;24.57;100.00;99814.13;5031287;28;20535;-50
2022/08/05 02:53:11;;;;;;;8.63;6.50;;;;;;;24.58;100.00;99815.84;5025224;28;20451;-50
2022/08/05 02:55:47;;;;;;;6.67;6.13;;;;;;;24.47;100.00;99784.25;5020887;28;20491;-51
2022/08/05 02:58:26;;;;;;;20.90;7.70;;;;;;;24.02;100.00;99760.38;5021116;28;20868;-50
2022/08/05 03:00:57;;;;;;;12.20;8.10;;;;;;;24.48;100.00;99750.63;5034138;28;20455;-51
2022/08/05 03:03:26;;;;;;;15.93;5.67;;;;;;;24.78;100.00;99733.22;5032722;28;20460;-51
2022/08/05 03:06:00;;;;;;;12.37;7.47;;;;;;;24.65;100.00;99765.31;5023889;28;20463;-51
2022/08/05 03:08:50;;;;;;;13.00;8.30;;;;;;;24.30;100.00;99842.03;5028142;28;20955;-51
2022/08/05 03:11:17;;;;;;;8.07;7.40;;;;;;;24.16;100.00;99949.22;5027229;28;20452;-51
2022/08/05 03:14:04;;;;;;;24.93;7.33;;;;;;;24.05;100.00;99963.75;5024938;28;20452;-51
2022/08/05 03:16:33;;;;;;;8.17;5.87;;;;;;;24.60;100.00;99985.09;5027331;28;20492;-51
2022/08/05 03:19:02;;;;;;;6.73;6.33;;;;;;;24.12;100.00;99999.38;5023018;28;20451;-51
2022/08/05 03:21:38;;;;;;;5.87;5.27;;;;;;;24.01;100.00;99994.06;5020216;28;20534;-51
2022/08/05 03:24:08;;;;;;;3.83;3.53;;;;;;;24.24;100.00;99998.25;5021715;28;20543;-51
2022/08/05 03:26:38;;;;;;;3.33;3.13;;;;;;;24.30;100.00;99997.75;5027316;28;20447;-51
2022/08/05 03:29:05;;;;;;;3.27;3.07;;;;;;;24.25;100.00;99991.84;5026720;28;20448;-51
2022/08/05 03:31:37;;;;;;;1.93;1.83;;;;;;;24.33;100.00;100000.19;5013699;28;20483;-51
2022/08/05 03:34:26;;;;;;;2.07;1.97;;;;;;;24.55;99.93;100000.97;5029898;28;20487;-51
2022/08/05 03:36:54;;;;;;;13.10;2.50;;;;;;;24.72;97.24;99994.84;5033402;28;20492;-50
2022/08/05 03:39:21;;;;;;;3.67;1.50;;;;;;;24.50;96.44;99991.34;5020022;28;20881;-51
2022/08/05 03:41:53;;;;;;;1.20;1.10;;;;;;;24.41;98.24;99989.50;5022732;28;20452;-51
2022/08/05 03:44:22;;;;;;;1.90;1.70;;;;;;;24.57;98.92;99997.09;5031291;28;20503;-51
2022/08/05 03:46:48;;;;;;;1.10;1.00;;;;;;;24.44;98.08;99982.91;5021639;28;20444;-51
2022/08/05 03:49:15;;;;;;;1.30;1.00;;;;;;;24.45;99.14;99974.63;5031405;28;20967;-50
2022/08/05 03:51:50;;;;;;;8.43;1.83;;;;;;;24.56;99.51;99980.94;5033277;28;20455;-51
2022/08/05 03:54:42;;;;;;;0.90;0.90;;;;;;;24.47;99.31;99956.31;5013314;28;20488;-51
2022/08/05 03:57:32;;;;;;;5.17;2.97;;;;;;;24.37;97.62;99950.00;5032090;28;20953;-50
2022/08/05 04:00:12;;;;;;;2.30;0.73;;;;;;;24.02;100.00;99949.59;5019794;28;20515;-51
2022/08/05 04:02:45;;;;;;;1.30;1.20;;;;;;;24.29;99.10;99970.69;5024504;28;20868;-50
2022/08/05 04:05:28;;;;;;;2.50;1.53;;;;;;;24.31;100.00;99987.75;5030499;28;20460;-51
2022/08/05 04:08:02;;;;;;;0.70;0.63;;;;;;;24.50;97.86;100007.66;5032819;28;20447;-52
2022/08/05 04:10:32;;;;;;;5.53;1.27;;;;;;;24.61;96.19;100011.28;5027144;28;20444;-51
2022/08/05 04:13:05;;;;;;;2.37;1.80;;;;;;;24.51;97.17;100022.97;5026253;28;20448;-50
2022/08/05 04:15:32;;;;;;;1.23;1.13;;;;;;;24.59;96.87;100037.75;5032632;28;20852;-51
2022/08/05 04:18:03;;;;;;;1.83;1.73;;;;;;;24.38;95.99;100041.38;5019447;28;20460;-51
2022/08/05 04:20:32;;;;;;;1.37;1.27;;;;;;;24.45;95.31;100036.28;5033066;28;20928;-50
2022/08/05 04:22:59;;;;;;;5.30;1.37;;;;;;;24.40;95.64;100047.56;5030578;28;20542;-51
2022/08/05 04:25:26;;;;;;;2.90;1.80;;;;;;;24.33;95.65;100031.94;5021777;28;20475;-50
2022/08/05 04:28:12;;;;;;;1.23;1.13;;;;;;;24.41;95.17;100016.69;5027575;28;20452;-51
2022/08/05 04:30:40;;;;;;;3.57;1.80;;;;;;;24.54;96.55;100029.16;5024607;28;20486;-51
2022/08/05 04:33:08;;;;;;;4.60;1.57;;;;;;;24.52;95.65;100024.69;5019006;28;21003;-50
2022/08/05 04:35:34;;;;;;;1.17;1.07;;;;;;;24.43;95.13;100014.69;5032483;28;20521;-51
2022/08/05 04:38:21;;;;;;;6.40;1.10;;;;;;;24.36;96.27;100031.66;5012748;28;20453;-51
2022/08/05 04:41:05;;;;;;;4.83;1.10;;;;;;;24.37;95.90;100027.94;5029859;28;20454;-50
2022/08/05 04:43:32;;;;;;;1.33;1.23;;;;;;;24.48;95.12;100025.97;5032560;28;20448;-51
2022/08/05 04:45:59;;;;;;;11.67;1.90;;;;;;;24.57;95.41;100035.16;5019423;28;20464;-51
2022/08/05 04:48:26;;;;;;;1.27;1.17;;;;;;;24.63;95.21;100031.88;5012531;28;20455;-50
2022/08/05 04:50:54;;;;;;;1.57;1.47;;;;;;;25.17;92.74;100029.66;5030777;28;20451;-52
2022/08/05 04:53:29;;;;;;;4.17;1.60;;;;;;;25.01;92.26;100033.81;5032372;28;20448;-51
2022/08/05 04:56:00;;;;;;;1.87;1.00;;;;;;;24.67;93.83;100054.19;5012315;28;20542;-51
2022/08/05 04:58:47;;;;;;;3.80;2.37;;;;;;;24.98;93.86;100098.50;5028938;28;20455;-52
2022/08/05 05:01:13;;;;;;;3.33;1.47;;;;;;;24.69;94.17;100079.41;5032083;28;20929;-52
2022/08/05 05:03:59;;;;;;;1.20;1.10;;;;;;;24.69;94.03;100063.94;5025073;28;20449;-52
2022/08/05 05:06:26;;;;;;;6.00;1.43;;;;;;;24.51;94.98;100043.84;5024994;28;21032;-52
2022/08/05 05:09:06;;;;;;;1.10;1.00;;;;;;;24.52;95.09;100037.41;5012628;28;20510;-51
2022/08/05 05:11:32;;;;;;;1.27;1.17;;;;;;;24.40;94.80;100063.88;5027086;28;20459;-51
2022/08/05 05:14:18;;;;;;;1.20;1.10;;;;;;;24.41;94.88;100078.31;5032178;28;20459;-52
2022/08/05 05:16:58;;;;;;;1.10;1.00;;;;;;;24.48;95.10;100082.19;5025987;28;20579;-52
2022/08/05 05:19:25;;;;;;;1.47;1.27;;;;;;;24.63;94.08;100056.34;5024958;28;20510;-51
2022/08/05 05:22:01;;;;;;;1.53;1.43;;;;;;;24.56;93.73;100029.88;5012370;28;20487;-52
2022/08/05 05:24:47;;;;;;;3.07;1.40;;;;;;;24.84;91.04;100007.31;5001210;23;20513;-53
2022/08/05 05:27:28;;;;;;;1.80;1.70;;;;;;;24.89;92.11;100005.00;4984805;28;20445;-53
2022/08/05 05:30:13;;;;;;;1.77;1.63;;;;;;;24.74;94.12;100017.31;4989385;28;20925;-54
2022/08/05 05:32:57;;;;;;;7.50;2.40;;;;;;;24.73;95.44;100029.19;4990641;28;20473;-54
2022/08/05 05:35:30;;;;;;;1.90;1.73;;;;;;;24.85;97.04;100035.34;4984421;28;20836;-54
2022/08/05 05:38:05;;;;;;;1.90;1.37;;;;;;;24.89;97.09;100024.03;4978082;28;20510;-53
2022/08/05 05:40:39;;;;;;;1.47;1.37;;;;;;;24.78;95.86;100032.31;4978430;28;20443;-53
2022/08/05 05:43:16;;;;;;;1.37;1.27;;;;;;;24.54;96.12;100015.56;4987034;28;20561;-53
2022/08/05 05:46:02;;;;;;;1.20;1.10;;;;;;;24.67;95.46;100013.41;4989994;28;20476;-53
2022/08/05 05:48:30;;;;;;;1.27;1.17;;;;;;;24.58;93.61;99987.09;4984657;28;20482;-53
2022/08/05 05:50:57;;;;;;;5.47;1.60;;;;;;;24.59;93.80;99988.81;4989647;28;20477;-54
2022/08/05 05:53:23;;;;;;;1.20;0.93;;;;;;;24.57;94.53;99974.50;4988395;28;20483;-54
2022/08/05 05:55:52;;;;;;;1.83;1.20;;;;;;;24.65;94.18;99986.38;4982901;28;20493;-54
2022/08/05 05:58:28;;;;;;;3.70;1.60;;;;;;;24.80;94.93;99992.25;4982806;28;20449;-54
2022/08/05 06:01:00;;;;;;;1.30;1.20;;;;;;;24.69;94.29;99979.69;4996029;28;20811;-54
2022/08/05 06:03:38;;;;;;;1.90;1.33;;;;;;;24.73;94.69;100004.72;4982663;28;20586;-53
2022/08/05 06:06:24;;;;;;;1.43;1.33;;;;;;;24.62;94.50;99991.25;4984242;28;20449;-53
2022/08/05 06:08:56;;;;;;;28.63;2.50;;;;;;;24.72;93.95;99959.50;4989079;28;20981;-54
2022/08/05 06:11:23;;;;;;;3.47;1.37;;;;;;;24.20;94.45;99939.78;4989261;28;20457;-53
2022/08/05 06:13:51;;;;;;;3.50;2.10;;;;;;;24.56;95.49;99951.03;4970119;28;20850;-53
2022/08/05 06:16:21;;;;;;;19.03;2.47;;;;;;;24.61;97.63;99965.91;4982506;28;21051;-53
2022/08/05 06:18:57;;;;;;;1.13;1.03;;;;;;;24.43;100.00;99949.44;4987118;28;20503;-53
2022/08/05 06:21:31;;;;;;;2.07;1.87;;;;;;;23.99;100.00;99895.59;4986753;28;20460;-53
2022/08/05 06:24:04;;;;;;;2.27;1.97;;;;;;;24.10;100.00;99928.03;4977355;28;20483;-54
2022/08/05 06:26:33;;;;;;;24.33;1.70;;;;;;;24.57;100.00;99934.59;4982476;28;20500;-54
2022/08/05 06:29:02;;;;;;;2.00;1.90;;;;;;;24.39;100.00;99948.00;4984036;28;20473;-54
2022/08/05 06:31:48;;;;;;;1.60;1.50;;;;;;;24.29;100.00;99921.81;4971926;28;20453;-53
2022/08/05 06:34:16;;;;;;;2.13;1.90;;;;;;;24.38;100.00;99915.53;4993269;28;20897;-54
2022/08/05 06:36:45;;;;;;;3.50;2.67;;;;;;;24.52;100.00;99923.25;4977190;28;20527;-54
2022/08/05 06:39:25;;;;;;;1.80;1.70;;;;;;;24.86;100.00;99952.78;4988822;28;20446;-54
2022/08/05 06:41:56;;;;;;;1.40;1.30;;;;;;;24.88;98.56;99975.25;4986210;28;20511;-54
2022/08/05 06:44:24;;;;;;;5.50;2.10;;;;;;;24.88;100.00;100000.56;4982040;28;20560;-54
2022/08/05 06:46:51;;;;;;;2.30;1.60;;;;;;;24.95;100.00;100042.53;4990389;28;20880;-54
2022/08/05 06:49:20;;;;;;;1.40;1.30;;;;;;;24.99;100.00;100065.72;4976766;28;20533;-54
2022/08/05 06:52:06;;;;;;;5.83;2.50;;;;;;;25.07;100.00;100098.53;4988110;28;20942;-54
2022/08/05 06:54:53;;;;;;;4.43;1.73;;;;;;;25.12;100.00;100128.06;4987539;28;20453;-53
2022/08/05 06:57:19;;;;;;;5.10;1.80;;;;;;;25.15;100.00;100108.72;4981740;28;20489;-54
2022/08/05 07:00:06;;;;;;;2.20;2.03;;;;;;;24.98;98.92;100101.22;4981814;28;20446;-54
2022/08/05 07:02:45;;;;;;;2.40;2.20;;;;;;;25.05;98.34;100094.22;4986980;28;20450;-54
2022/08/05 07:05:13;;;;;;;1.80;1.70;;;;;;;25.24;98.46;100086.09;4988452;28;20457;-53
2022/08/05 07:07:47;;;;;;;1.53;1.40;;;;;;;25.10;98.34;100087.38;4985793;28;20449;-54
2022/08/05 07:10:14;;;;;;;1.60;1.50;;;;;;;25.12;96.94;100086.38;4981688;28;20805;-53
2022/08/05 07:18:30;;;;;;;1.63;1.53;;;;;;;25.04;94.56;100084.34;4988071;28;20460;-54
2022/08/05 07:20:57;;;;;;;1.40;1.30;;;;;;;25.28;93.60;100089.38;4987475;28;20533;-54
2022/08/05 07:23:30;;;;;;;1.50;1.40;;;;;;;25.31;93.32;100094.53;4969200;28;20489;-54
2022/08/05 07:25:56;;;;;;;1.30;1.00;;;;;;;25.40;93.34;100113.59;4981353;28;20477;-55
2022/08/05 07:28:24;;;;;;;1.53;1.43;;;;;;;25.36;92.82;100098.56;4988012;28;20840;-54
2022/08/05 07:30:51;;;;;;;4.20;2.03;;;;;;;25.66;87.80;100110.31;4988373;28;20449;-54
2022/08/05 07:33:20;;;;;;;1.87;1.43;;;;;;;25.61;90.90;100123.47;4987058;28;20525;-54
2022/08/05 07:36:03;;;;;;;2.60;1.43;;;;;;;25.26;89.69;100119.47;4987589;28;20513;-54
2022/08/05 07:38:47;;;;;;;3.27;2.37;;;;;;;25.74;89.59;100123.22;4986605;28;20450;-53
2022/08/05 07:41:17;;;;;;;3.77;1.20;;;;;;;25.67;86.90;100109.28;4981174;28;20449;-54
2022/08/05 07:44:07;;;;;;;1.40;1.30;;;;;;;25.72;85.07;100125.22;4979169;28;20938;-54
2022/08/05 07:46:45;;;;;;;6.80;1.27;;;;;;;25.97;84.73;100130.06;4984850;28;20449;-54
2022/08/05 07:49:15;;;;;;;1.27;0.90;;;;;;;26.02;84.23;100127.75;4980947;28;20453;-54
2022/08/05 07:51:43;;;;;;;19.50;1.80;;;;;;;26.25;82.29;100123.69;4982433;28;20450;-54
2022/08/05 07:54:22;;;;;;;1.10;1.00;;;;;;;26.29;80.92;100132.41;4968464;28;20576;-54
2022/08/05 07:56:52;;;;;;;1.53;1.43;;;;;;;26.03;81.23;100134.91;4980387;28;20551;-54
2022/08/05 07:59:39;;;;;;;2.70;1.47;;;;;;;26.11;81.97;100118.69;4983598;28;20450;-54
2022/08/05 08:02:09;;;;;;;1.23;1.13;;;;;;;26.14;81.70;100117.53;4987451;28;20546;-54
2022/08/05 08:04:43;;;;;;;1.43;1.30;;;;;;;26.22;80.49;100120.41;4985353;28;20472;-54
2022/08/05 08:07:11;;;;;;;1.27;1.17;;;;;;;26.08;82.89;100123.59;4980390;28;20456;-54
2022/08/05 08:09:37;;;;;;;0.87;0.70;;;;;;;26.12;81.56;100119.56;4981722;28;20450;-53
2022/08/05 08:12:04;;;;;;;1.30;1.07;;;;;;;26.06;82.62;100118.28;4987047;28;20450;-54
2022/08/05 08:14:46;;;;;;;0.80;0.70;;;;;;;26.32;79.07;100121.22;4987111;28;20450;-54
2022/08/05 08:17:13;;;;;;;0.70;0.63;;;;;;;26.41;81.45;100112.16;4981901;28;20511;-54
2022/08/05 08:19:42;;;;;;;0.87;0.87;;;;;;;26.55;81.81;100122.56;4977763;28;20458;-54
2022/08/05 08:22:29;;;;;;;1.40;1.30;;;;;;;26.31;79.55;100118.63;4985260;28;20457;-53
2022/08/05 08:24:58;;;;;;;0.80;0.70;;;;;;;25.82;82.50;100121.47;4980453;28;20458;-54
2022/08/05 08:27:30;;;;;;;1.27;1.17;;;;;;;25.93;80.34;100120.47;4981375;28;20450;-53
2022/08/05 08:30:13;;;;;;;1.60;1.50;;;;;;;26.05;80.17;100111.13;4971208;28;20453;-54
2022/08/05 08:32:46;;;;;;;0.77;0.70;;;;;;;26.42;79.47;100110.28;4990539;28;20479;-54
2022/08/05 08:35:16;;;;;;;1.17;1.00;;;;;;;26.25;78.08;100112.78;4984062;28;20540;-54
2022/08/05 08:37:44;;;;;;;3.13;1.33;;;;;;;25.98;79.47;100116.28;4979848;28;20516;-54
2022/08/05 08:40:18;;;;;;;2.00;0.83;;;;;;;25.98;81.49;100120.88;4982070;28;20489;-53
2022/08/05 08:42:51;;;;;;;1.23;1.13;;;;;;;25.58;82.13;100118.31;4985215;28;20493;-53
2022/08/05 08:45:20;;;;;;;0.90;0.90;;;;;;;25.73;84.96;100107.88;4982695;28;20454;-54
2022/08/05 08:47:54;;;;;;;1.10;1.00;;;;;;;26.00;81.20;100113.41;4984759;28;20445;-53
2022/08/05 08:50:43;;;;;;;2.40;1.67;;;;;;;26.09;82.67;100100.78;4986763;28;20450;-54
2022/08/05 08:53:35;;;;;;;1.87;1.53;;;;;;;26.36;79.38;100091.84;4986812;28;20462;-54
2022/08/05 08:56:04;;;;;;;1.07;0.97;;;;;;;25.83;78.68;100082.34;4981354;28;20865;-54
2022/08/05 08:58:32;;;;;;;0.70;0.60;;;;;;;25.96;78.01;100085.63;4979764;28;20493;-54
2022/08/05 09:01:10;;;;;;;2.00;1.33;;;;;;;25.73;78.70;100076.06;4983609;28;20473;-53
2022/08/05 09:03:45;;;;;;;1.20;1.10;;;;;;;26.50;76.69;100089.47;4986178;28;20471;-54
2022/08/05 09:06:13;;;;;;;2.17;1.70;;;;;;;26.52;76.86;100116.56;4984383;28;20938;-54
2022/08/05 09:08:46;;;;;;;1.57;0.90;;;;;;;25.83;79.62;100127.78;4979704;28;20477;-54
2022/08/05 09:11:14;;;;;;;1.77;0.93;;;;;;;25.93;81.01;100137.69;4980632;28;20451;-54
2022/08/05 09:13:41;;;;;;;1.00;1.00;;;;;;;25.80;81.00;100136.25;4986251;28;20474;-53
2022/08/05 09:16:28;;;;;;;4.27;1.60;;;;;;;25.94;81.53;100123.03;4978671;28;20454;-54
2022/08/05 09:18:56;;;;;;;1.10;1.00;;;;;;;25.81;82.99;100138.84;4987912;28;20495;-53
2022/08/05 09:21:27;;;;;;;1.27;1.17;;;;;;;25.68;83.29;100127.34;4990265;28;20537;-53
2022/08/05 09:24:14;;;;;;;1.70;1.60;;;;;;;25.63;82.47;100116.91;4989912;28;20481;-53
2022/08/05 09:26:41;;;;;;;1.17;1.07;;;;;;;25.74;82.46;100126.78;4983486;28;20453;-54
2022/08/05 09:29:09;;;;;;;0.90;0.80;;;;;;;25.51;82.45;100133.53;4983575;28;20473;-53
2022/08/05 09:31:35;;;;;;;0.80;0.70;;;;;;;25.42;83.56;100134.38;4996601;28;20457;-54
2022/08/05 09:34:22;;;;;;;10.73;1.67;;;;;;;25.48;84.28;100121.03;4982248;28;20482;-53
2022/08/05 09:36:52;;;;;;;1.70;1.60;;;;;;;26.01;82.61;100119.72;4986443;28;20496;-54
2022/08/05 09:39:23;;;;;;;2.03;1.37;;;;;;;26.24;80.59;100116.50;4989827;28;20533;-54
2022/08/05 09:42:07;;;;;;;2.30;0.97;;;;;;;26.22;78.91;100112.22;4989864;28;20445;-53
2022/08/05 09:44:36;;;;;;;1.27;1.17;;;;;;;26.05;78.45;100127.47;4970727;28;20500;-54
2022/08/05 09:47:10;;;;;;;1.30;1.20;;;;;;;26.16;79.79;100134.59;4991315;28;20462;-54
2022/08/05 09:49:46;;;;;;;0.80;0.80;;;;;;;26.17;78.88;100136.31;4984902;28;20449;-54
2022/08/05 09:52:27;;;;;;;7.83;1.73;;;;;;;26.02;78.20;100140.50;4982636;28;20851;-53
2022/08/05 09:54:58;;;;;;;1.73;1.63;;;;;;;26.36;78.29;100144.47;4984917;28;20454;-53
2022/08/05 09:57:34;;;;;;;1.40;1.30;;;;;;;26.35;79.01;100150.06;4989331;28;20506;-53
2022/08/05 10:00:12;;;;;;;1.53;1.43;;;;;;;26.38;77.93;100150.63;4989255;28;20894;-54
2022/08/05 10:02:47;;;;;;;0.73;0.73;;;;;;;26.21;78.08;100163.16;4984416;28;20536;-53
2022/08/05 10:05:23;;;;;;;3.70;1.47;;;;;;;26.13;77.48;100157.56;4982758;28;20445;-54
2022/08/05 10:08:04;;;;;;;1.90;1.43;;;;;;;26.34;77.64;100167.41;4985174;28;20474;-54
2022/08/05 10:10:51;;;;;;;2.40;1.80;;;;;;;26.63;77.75;100154.56;4974696;28;20962;-53
2022/08/05 10:13:35;;;;;;;1.10;1.00;;;;;;;26.49;76.66;100160.50;4982213;28;20492;-53
2022/08/05 10:16:34;;;;;;;1.03;0.93;;;;;;;26.83;76.73;100168.97;4982929;28;20451;-54
2022/08/05 10:19:19;;;;;;;1.23;1.13;;;;;;;26.83;76.69;100161.63;4979808;28;20540;-54
2022/08/05 10:22:07;;;;;;;1.70;1.60;;;;;;;27.09;77.00;100170.00;4972593;28;20837;-54
2022/08/05 10:24:41;;;;;;;2.67;1.40;;;;;;;26.73;75.85;100168.16;4981930;28;20481;-54
2022/08/05 10:27:13;;;;;;;1.60;1.20;;;;;;;26.61;76.26;100158.47;4985168;28;20438;-54
2022/08/05 10:29:42;;;;;;;0.97;0.70;;;;;;;26.85;76.12;100156.03;4992703;28;20441;-54
2022/08/05 10:32:30;;;;;;;1.37;1.27;;;;;;;26.89;76.25;100149.28;4994964;28;20821;-54
2022/08/05 10:35:16;;;;;;;2.10;1.90;;;;;;;26.92;75.67;100145.38;4975692;28;20450;-53
2022/08/05 10:37:43;;;;;;;1.80;1.70;;;;;;;26.36;77.00;100151.81;4980961;28;20531;-53
2022/08/05 10:40:34;;;;;;;1.10;1.00;;;;;;;26.36;77.75;100168.16;4984584;28;20870;-54
2022/08/05 10:43:29;;;;;;;1.03;0.97;;;;;;;26.17;79.06;100167.16;4971058;28;20465;-53
2022/08/05 10:46:07;;;;;;;3.40;1.43;;;;;;;26.07;79.02;100165.47;4981940;28;20450;-54
2022/08/05 10:48:45;;;;;;;1.53;1.43;;;;;;;25.94;79.05;100160.31;4982360;28;20453;-54
2022/08/05 10:51:24;;;;;;;1.13;1.03;;;;;;;25.81;79.86;100176.09;4985002;28;20543;-53
2022/08/05 10:53:59;;;;;;;1.83;1.73;;;;;;;25.97;79.60;100171.78;4981730;28;20524;-54
2022/08/05 10:56:48;;;;;;;1.50;1.10;;;;;;;26.13;79.60;100164.88;4981708;28;20458;-54
2022/08/05 10:59:25;;;;;;;5.23;1.53;;;;;;;26.16;79.00;100162.69;4987141;28;20458;-53
2022/08/05 11:02:13;;;;;;;1.17;1.07;;;;;;;26.10;79.41;100178.78;4988355;28;20446;-53
2022/08/05 11:05:03;;;;;;;1.90;1.80;;;;;;;26.52;78.05;100171.97;4988718;28;20544;-53
2022/08/05 11:07:30;;;;;;;5.17;2.03;;;;;;;26.58;77.90;100165.03;4983877;28;20441;-53
2022/08/05 11:10:25;;;;;;;1.83;1.73;;;;;;;27.35;76.35;100156.47;4980697;28;20449;-53
2022/08/05 11:12:53;;;;;;;2.20;2.00;;;;;;;27.35;76.23;100161.94;4981723;28;20998;-53
2022/08/05 11:15:27;;;;;;;1.23;1.13;;;;;;;27.43;75.68;100155.72;4988312;28;20459;-54
2022/08/05 11:18:27;;;;;;;1.60;1.37;;;;;;;27.85;74.17;100149.63;4988010;28;20494;-54
2022/08/05 11:20:58;;;;;;;1.67;1.57;;;;;;;27.56;75.31;100153.44;4987642;28;20857;-54
2022/08/05 11:23:30;;;;;;;1.30;1.20;;;;;;;27.36;76.28;100157.31;4981484;28;20488;-54
2022/08/05 11:26:18;;;;;;;7.30;1.23;;;;;;;27.84;75.04;100167.91;4981171;28;20821;-54
2022/08/05 11:28:56;;;;;;;1.73;1.40;;;;;;;27.77;74.43;100171.41;4982968;28;20447;-54
2022/08/05 11:31:32;;;;;;;1.53;1.37;;;;;;;27.73;74.68;100173.59;4993165;28;20958;-54
2022/08/05 11:34:37;;;;;;;2.00;1.80;;;;;;;28.11;73.90;100175.13;4981156;28;21023;-54
2022/08/05 11:37:04;;;;;;;1.00;0.90;;;;;;;28.25;73.63;100169.06;4983172;28;20458;-54
2022/08/05 11:39:51;;;;;;;1.80;1.70;;;;;;;28.53;73.22;100179.88;4985948;28;20955;-54
2022/08/05 11:42:32;;;;;;;1.70;1.60;;;;;;;27.85;73.81;100175.09;4987962;28;20445;-54
2022/08/05 11:45:06;;;;;;;1.90;1.80;;;;;;;27.51;73.86;100177.63;4981677;28;20511;-54
2022/08/05 11:47:52;;;;;;;5.13;2.23;;;;;;;27.92;73.52;100181.63;4981121;28;20455;-54
2022/08/05 11:50:20;;;;;;;3.53;2.30;;;;;;;27.61;73.72;100174.81;4981492;28;20527;-54
2022/08/05 11:52:47;;;;;;;1.43;1.33;;;;;;;28.02;73.05;100182.38;4981065;28;20840;-54
2022/08/05 11:55:14;;;;;;;1.70;1.60;;;;;;;28.14;72.67;100195.81;4980674;28;20446;-54
2022/08/05 11:57:45;;;;;;;1.33;1.23;;;;;;;28.54;72.53;100189.78;4986942;28;20577;-54
2022/08/05 12:00:31;;;;;;;1.83;1.63;;;;;;;28.34;72.03;100200.06;4987617;28;20446;-54
2022/08/05 12:03:19;;;;;;;1.80;1.70;;;;;;;28.80;70.82;100204.31;4985433;28;20474;-54
2022/08/05 12:06:01;;;;;;;3.13;2.00;;;;;;;28.75;71.27;100192.13;4970599;28;20517;-54
2022/08/05 12:08:29;;;;;;;1.70;1.60;;;;;;;28.45;71.36;100194.34;4980471;28;20449;-54
2022/08/05 12:10:59;;;;;;;1.70;1.60;;;;;;;28.60;70.75;100189.13;4984748;28;20458;-54